Detall de PIREP

Printer-friendly versionPDF version

[2014/10/09 07:40:00]
Flight IATA:CT3206
Pilot Number:042
Company ICAO:CAT
Aircraft Type:B463/A
PAX:39
Aircraft Registration:PAX
Departing Airport: LEPA
Destination Airport: LZIB
Alternate Airport:LHBP
Online: VATSIM
Route:ISTER UN851 MONEB UM985 UBUXI Q110 KUVEX
Flight Level:F340
No Slew and time accel
No pause
Crash detect
Detect pilot in Cockpit between each 30 and 45 minutes
07:40 Zero fuel Weight: 80446 Lbs, Fuel Weight: 22740 Lbs
07:40 VATSIM:LEPA 090630Z 00000KT 9999 FEW018 SCT020 17/16 Q1012 NOSIG
07:40 VATSIM:LZIB 090630Z 10010KT 9000 SCT009 14/12 Q1015 NOSIG
08:00 Take-off
08:00 Take off Weight: 101908 Lbs
08:00 Wind: 238º @ 000 Knots Heading: 238º
08:00 POS N39º 33´ 06´´ E002º 43´ 15´´
08:00 Gear Up: 156 Knots
08:00 Flaps:2 at 156 Knots
08:02 Flaps:1 at 153 Knots
08:02 Flaps:0 at 183 Knots
08:15 Wind:243º@029 Knots Heading: 059º Ground Speed: 388 Knots Altitude 26981 ft
08:22 TOC
08:22 Fuel Weight: 18290 Lb
08:30 Wind:235º@021 Knots Heading: 060º Ground Speed: 429 Knots Altitude 33999 ft
08:45 Wind:222º@022 Knots Heading: 063º Ground Speed: 429 Knots Altitude 34019 ft
09:00 Wind:203º@033 Knots Heading: 022º Ground Speed: 442 Knots Altitude 34035 ft
09:15 Wind:223º@032 Knots Heading: 030º Ground Speed: 440 Knots Altitude 34137 ft
09:30 Wind:237º@035 Knots Heading: 055º Ground Speed: 443 Knots Altitude 34261 ft
09:45 Wind:246º@029 Knots Heading: 073º Ground Speed: 437 Knots Altitude 34117 ft
09:49 TOD
09:49 Fuel Weight: 12725 Lb
10:00 Wind:233º@017 Knots Heading: 051º Ground Speed: 357 Knots Altitude 25567 ft
10:15 Wind:200º@016 Knots Heading: 342º Ground Speed: 251 Knots Altitude 6128 ft
10:15 Gear Down: 183 Knots
10:16 Flaps:1 at 193 Knots
10:17 Flaps:2 at 175 Knots
10:17 Flaps:3 at 165 Knots
10:17 Flaps:4 at 152 Knots
10:19 TouchDown:Rate -422 ft/min Speed: 154 Knots
10:19 VATSIM:LZIB 090900Z 12011KT 9999 SCT021 18/13 Q1016 NOSIG
10:19 Land
10:19 Wind:111º@014 Knots
10:19 Heading: 330º
10:19 Flight Duration: 02:19
10:19 Landing Weight: 92015 Lbs
10:19 POS N48º 10´ 20´´ E017º 12´ 30´´
10:23 Parking brakes on
10:23 Block to Block Duration: 02:23
10:23 Final Fuel: 11188 Lbls
10:23 Spent Fuel: 11552 Lbls
10:23 Flight Length: 917 NM
10:23 TOD Land Length: 162 NM

Exportar CSV

Powered by Drupal - Modified by Danger4k